createdAt,value
2024-04-22T00:01:24.141Z,8.73
2024-04-22T00:04:18.087Z,10.95
2024-04-22T00:07:06.617Z,9.05
2024-04-22T00:09:58.331Z,10.80
2024-04-22T00:12:49.524Z,8.07
2024-04-22T00:15:37.948Z,7.80
2024-04-22T00:18:29.448Z,10.40
2024-04-22T00:21:20.667Z,15.15
2024-04-22T00:24:12.142Z,10.63
2024-04-22T00:27:00.618Z,10.18
2024-04-22T00:29:51.710Z,11.30
2024-04-22T00:32:40.518Z,10.65
2024-04-22T00:35:31.740Z,10.05
2024-04-22T00:38:22.907Z,10.40
2024-04-22T00:41:14.352Z,10.90
2024-04-22T00:44:02.797Z,10.32
2024-04-22T00:46:54.388Z,11.65
2024-04-22T00:49:43.002Z,9.88
2024-04-22T00:52:35.410Z,9.95
2024-04-22T00:55:31.102Z,10.88
2024-04-22T00:58:20.452Z,12.15
2024-04-22T01:01:13.861Z,12.95
2024-04-22T01:04:03.433Z,11.50
2024-04-22T01:06:54.687Z,11.00
2024-04-22T01:09:43.411Z,15.20
2024-04-22T01:12:37.187Z,14.52
2024-04-22T01:15:25.697Z,11.10
2024-04-22T01:18:21.257Z,12.27
2024-04-22T01:21:09.938Z,14.20
2024-04-22T01:24:05.235Z,30.27
2024-04-22T01:26:57.601Z,22.42
2024-04-22T01:29:48.676Z,17.10
2024-04-22T01:32:37.230Z,15.88
2024-04-22T01:35:28.662Z,11.55
2024-04-22T01:38:17.108Z,12.23
2024-04-22T01:41:11.048Z,12.18
2024-04-22T01:43:59.541Z,11.13
2024-04-22T01:46:50.807Z,13.18
2024-04-22T01:49:39.554Z,14.55
2024-04-22T01:52:30.761Z,11.65
2024-04-22T01:55:19.260Z,12.45
2024-04-22T01:58:15.556Z,11.60
2024-04-22T02:01:12.564Z,12.38
2024-04-22T02:04:01.210Z,14.88
2024-04-22T02:06:52.589Z,12.75
2024-04-22T02:09:41.440Z,11.93
2024-04-22T02:12:32.564Z,11.55
2024-04-22T02:15:23.828Z,12.60
2024-04-22T02:18:14.901Z,13.18
2024-04-22T02:21:03.438Z,14.32
2024-04-22T02:23:54.850Z,12.85
2024-04-22T02:26:43.281Z,14.30
2024-04-22T02:29:34.647Z,12.95
2024-04-22T02:32:25.868Z,13.27
2024-04-22T02:35:17.213Z,15.15
2024-04-22T02:38:05.952Z,12.27
2024-04-22T02:40:57.919Z,14.65
2024-04-22T02:43:48.484Z,14.85
2024-04-22T02:46:39.699Z,15.40
2024-04-22T02:49:33.108Z,13.75
2024-04-22T02:52:24.312Z,14.93
2024-04-22T02:55:12.825Z,12.70
2024-04-22T02:58:04.479Z,15.60
2024-04-22T03:00:55.848Z,14.93
2024-04-22T03:03:47.280Z,13.90
2024-04-22T03:06:38.443Z,12.65
2024-04-22T03:09:34.083Z,13.95
2024-04-22T03:12:22.918Z,16.73
2024-04-22T03:15:14.060Z,11.55
2024-04-22T03:18:02.576Z,10.27
2024-04-22T03:20:53.748Z,12.85
2024-04-22T03:23:44.887Z,10.50
2024-04-22T03:26:36.007Z,12.98
2024-04-22T03:29:24.553Z,15.60
2024-04-22T03:32:15.805Z,14.20
2024-04-22T03:35:04.697Z,16.17
2024-04-22T03:37:55.798Z,19.00
2024-04-22T03:40:49.574Z,10.68
2024-04-22T03:43:40.816Z,11.43
2024-04-22T03:46:48.167Z,11.00
2024-04-22T03:49:59.398Z,8.27
2024-04-22T03:52:51.303Z,9.60
2024-04-22T03:55:43.600Z,7.57
2024-04-22T03:58:37.481Z,6.47
2024-04-22T04:01:29.081Z,10.70
2024-04-22T04:04:17.912Z,11.00
2024-04-22T04:07:09.394Z,9.35
2024-04-22T04:09:57.816Z,11.07
2024-04-22T04:12:49.103Z,10.40
2024-04-22T04:15:40.413Z,11.70
2024-04-22T04:18:31.607Z,12.25
2024-04-22T04:21:20.096Z,13.50
2024-04-22T04:24:11.928Z,15.48
2024-04-22T04:27:00.449Z,15.35
2024-04-22T04:29:51.554Z,18.35
2024-04-22T04:32:45.375Z,15.10
2024-04-22T04:35:33.897Z,18.45
2024-04-22T04:38:25.097Z,16.33
2024-04-22T04:41:13.555Z,16.23
2024-04-22T04:44:05.049Z,16.92
2024-04-22T04:46:53.554Z,14.77
2024-04-22T04:49:47.369Z,19.45
2024-04-22T04:52:35.987Z,17.42
2024-04-22T04:55:27.239Z,18.33
2024-04-22T04:58:16.353Z,19.95
2024-04-22T05:01:08.273Z,20.13
2024-04-22T05:03:59.155Z,23.58
2024-04-22T05:06:53.257Z,22.58
2024-04-22T05:09:41.741Z,24.42
2024-04-22T05:12:33.207Z,22.13
2024-04-22T05:15:21.942Z,22.40
2024-04-22T05:18:13.323Z,18.85
2024-04-22T05:21:01.859Z,18.33
2024-04-22T05:23:56.905Z,20.08
2024-04-22T05:26:45.441Z,19.95
2024-04-22T05:29:36.845Z,19.42
2024-04-22T05:32:25.425Z,19.23
2024-04-22T05:35:32.721Z,16.35
2024-04-22T05:38:24.018Z,18.42
2024-04-22T05:41:17.902Z,12.57
2024-04-22T05:44:09.199Z,16.63
2024-04-22T05:47:00.385Z,13.50
2024-04-22T05:49:51.648Z,15.30
2024-04-22T05:52:42.806Z,17.40
2024-04-22T05:55:34.045Z,17.83
2024-04-22T05:58:25.253Z,16.90
2024-04-22T06:01:16.532Z,18.70
2024-04-22T06:04:05.937Z,21.67
2024-04-22T06:06:57.130Z,28.52
2024-04-22T06:09:45.573Z,21.63
2024-04-22T06:12:36.741Z,21.02
2024-04-22T06:15:28.095Z,26.10
2024-04-22T06:18:20.207Z,22.77
2024-04-22T06:21:08.672Z,24.67
2024-04-22T06:23:59.831Z,23.00
2024-04-22T06:26:48.303Z,28.88
2024-04-22T06:29:39.432Z,20.63
2024-04-22T06:32:36.423Z,16.85
2024-04-22T06:35:28.394Z,15.15
2024-04-22T06:38:17.103Z,17.27
2024-04-22T06:41:08.795Z,14.18
2024-04-22T06:43:59.894Z,15.82
2024-04-22T06:46:51.043Z,16.00
2024-04-22T06:49:42.644Z,20.92
2024-04-22T06:52:33.918Z,18.70
2024-04-22T06:55:25.443Z,17.60
2024-04-22T06:58:17.200Z,18.77
2024-04-22T07:01:05.890Z,17.85
2024-04-22T07:03:57.147Z,21.38
2024-04-22T07:06:50.863Z,17.30
2024-04-22T07:09:42.025Z,17.88
2024-04-22T07:12:30.447Z,15.43
2024-04-22T07:15:22.250Z,15.07
2024-04-22T07:18:10.933Z,15.50
2024-04-22T07:21:02.096Z,16.55
2024-04-22T07:23:53.184Z,16.52
2024-04-22T07:26:45.035Z,17.95
2024-04-22T07:29:34.475Z,15.63
2024-04-22T07:32:26.482Z,12.70
2024-04-22T07:35:16.633Z,14.00
2024-04-22T07:38:12.879Z,15.95
2024-04-22T07:41:07.847Z,13.27
2024-04-22T07:43:56.522Z,12.15
2024-04-22T07:46:47.633Z,13.57
2024-04-22T07:49:36.143Z,13.18
2024-04-22T07:52:28.248Z,15.90
2024-04-22T07:55:17.674Z,13.18
2024-04-22T07:58:13.061Z,13.32
2024-04-22T08:01:03.523Z,11.63
2024-04-22T08:03:55.470Z,12.80
2024-04-22T08:06:48.297Z,8.63
2024-04-22T08:09:39.723Z,9.52
2024-04-22T08:12:31.263Z,10.05
2024-04-22T08:15:22.520Z,10.98
2024-04-22T08:18:16.046Z,11.80
2024-04-22T08:21:06.860Z,6.68
2024-04-22T08:23:58.024Z,6.30
2024-04-22T08:26:46.562Z,5.43
2024-04-22T08:29:37.952Z,10.35
2024-04-22T08:32:29.402Z,7.05
2024-04-22T08:35:20.676Z,8.02
2024-04-22T08:38:09.177Z,6.10
2024-04-22T08:41:00.639Z,5.38
2024-04-22T08:43:50.629Z,5.30
2024-04-22T08:46:41.880Z,9.77
2024-04-22T08:49:33.082Z,7.93
2024-04-22T08:52:25.346Z,7.95
2024-04-22T08:55:14.189Z,8.63
2024-04-22T08:58:05.279Z,6.18
2024-04-22T09:00:53.904Z,7.22
2024-04-22T09:03:45.181Z,6.25
2024-04-22T09:06:36.385Z,6.43
2024-04-22T09:09:40.424Z,6.88
2024-04-22T09:12:38.934Z,10.48
2024-04-22T09:15:28.218Z,6.22
2024-04-22T09:18:20.845Z,5.38
2024-04-22T09:21:11.543Z,6.53
2024-04-22T09:24:05.274Z,6.63
2024-04-22T09:26:53.848Z,5.80
2024-04-22T09:29:47.369Z,6.15
2024-04-22T09:32:38.199Z,7.40
2024-04-22T09:35:30.752Z,6.10
2024-04-22T09:38:28.418Z,6.32
2024-04-22T09:41:30.366Z,7.25
2024-04-22T09:44:23.166Z,4.55
2024-04-22T09:47:12.735Z,7.28
2024-04-22T09:50:06.041Z,6.78
2024-04-22T09:52:56.178Z,4.45
2024-04-22T09:55:49.476Z,2.88
2024-04-22T09:58:42.141Z,3.55
2024-04-22T10:01:33.785Z,3.15
2024-04-22T10:04:22.773Z,4.38
2024-04-22T10:07:14.227Z,3.38
2024-04-22T10:10:02.843Z,4.15
2024-04-22T10:12:54.452Z,5.32
2024-04-22T10:15:47.478Z,3.28
2024-04-22T10:21:28.843Z,5.28
2024-04-22T10:24:30.213Z,3.33
2024-04-22T10:27:18.751Z,5.88
2024-04-22T10:30:11.469Z,4.82
2024-04-22T10:33:03.028Z,3.35
2024-04-22T10:35:54.464Z,5.57
2024-04-22T10:38:42.979Z,3.30
2024-04-22T10:41:34.306Z,4.47
2024-04-22T10:44:22.840Z,5.45
2024-04-22T10:47:14.923Z,4.93
2024-04-22T10:50:15.852Z,6.38
2024-04-22T10:53:08.727Z,4.15
2024-04-22T10:55:57.535Z,8.55
2024-04-22T10:58:48.934Z,4.97
2024-04-22T11:01:42.566Z,4.28
2024-04-22T11:04:34.187Z,3.28
2024-04-22T11:07:27.799Z,5.63
2024-04-22T11:10:28.062Z,3.13
2024-04-22T11:13:23.944Z,5.88
2024-04-22T11:16:17.419Z,5.45
2024-04-22T11:19:07.989Z,9.63
2024-04-22T11:21:59.252Z,4.72
2024-04-22T11:24:50.721Z,5.25
2024-04-22T11:27:41.996Z,5.75
2024-04-22T11:30:33.112Z,5.97
2024-04-22T11:33:25.013Z,5.27
2024-04-22T11:36:16.245Z,6.15
2024-04-22T11:39:13.135Z,7.82
2024-04-22T11:42:07.536Z,4.05
2024-04-22T11:44:59.164Z,9.00
2024-04-22T11:47:48.290Z,7.33
2024-04-22T11:50:40.700Z,7.95
2024-04-22T11:53:29.377Z,5.68
2024-04-22T11:56:21.326Z,8.50
2024-04-22T11:59:12.404Z,7.35
2024-04-22T12:02:03.767Z,5.55
2024-04-22T12:04:55.963Z,8.57
2024-04-22T12:07:47.692Z,7.13
2024-04-22T12:10:38.879Z,6.97
2024-04-22T12:13:29.821Z,7.47
2024-04-22T12:16:23.717Z,5.85
2024-04-22T12:19:12.307Z,5.72
2024-04-22T12:22:03.430Z,7.18
2024-04-22T12:24:51.910Z,7.20
2024-04-22T12:27:43.365Z,6.43
2024-04-22T12:30:31.858Z,7.50
2024-04-22T12:33:25.912Z,5.95
2024-04-22T12:36:14.431Z,5.03
2024-04-22T12:39:05.506Z,6.75
2024-04-22T12:41:54.373Z,6.85
2024-04-22T12:44:45.390Z,10.48
2024-04-22T12:47:52.421Z,7.05
2024-04-22T12:50:50.031Z,8.57
2024-04-22T12:53:41.536Z,6.70
2024-04-22T12:56:32.627Z,8.85
2024-04-22T12:59:23.682Z,8.20
2024-04-22T13:02:16.823Z,9.00
2024-04-22T13:05:09.185Z,9.55
2024-04-22T13:08:04.032Z,8.95
2024-04-22T13:10:55.483Z,8.25
2024-04-22T13:13:46.723Z,7.60
2024-04-22T13:16:37.892Z,12.70
2024-04-22T13:19:29.115Z,8.85
2024-04-22T13:22:17.901Z,6.47
2024-04-22T13:25:12.210Z,5.32
2024-04-22T13:28:00.856Z,5.25
2024-04-22T13:30:54.333Z,6.38
2024-04-22T13:33:44.537Z,4.93
2024-04-22T13:36:37.914Z,5.88
2024-04-22T13:39:26.431Z,6.28
2024-04-22T13:42:20.168Z,6.93
2024-04-22T13:45:08.840Z,7.78
2024-04-22T13:48:00.262Z,7.68
2024-04-22T13:50:48.902Z,7.38
2024-04-22T13:53:40.029Z,8.30
2024-04-22T13:56:28.476Z,6.80
2024-04-22T13:59:22.293Z,8.05
2024-04-22T14:02:10.851Z,6.53
2024-04-22T14:05:02.016Z,4.75
2024-04-22T14:07:50.604Z,4.78
2024-04-22T14:10:42.084Z,7.00
2024-04-22T14:13:30.646Z,6.07
2024-04-22T14:16:24.396Z,5.43
2024-04-22T14:19:12.905Z,7.88
2024-04-22T14:22:04.333Z,6.15
2024-04-22T14:24:52.897Z,8.55
2024-04-22T14:27:44.000Z,7.32
2024-04-22T14:30:32.595Z,6.07
2024-04-22T14:33:26.533Z,6.60
2024-04-22T14:36:15.058Z,5.68
2024-04-22T14:39:06.260Z,6.05
2024-04-22T14:41:54.785Z,8.27
2024-04-22T14:44:47.042Z,9.25
2024-04-22T14:47:36.950Z,6.45
2024-04-22T14:50:30.784Z,7.43
2024-04-22T14:53:19.306Z,6.38
2024-04-22T14:56:11.042Z,10.68
2024-04-22T14:59:00.874Z,11.32
2024-04-22T15:01:53.170Z,10.73
2024-04-22T15:04:44.649Z,8.48
2024-04-22T15:07:36.239Z,7.28
2024-04-22T15:10:27.458Z,10.88
2024-04-22T15:13:16.026Z,9.93
2024-04-22T15:16:07.695Z,7.88
2024-04-22T15:18:58.993Z,5.95
2024-04-22T15:21:47.510Z,6.45
2024-04-22T15:24:41.302Z,8.38
2024-04-22T15:27:29.772Z,7.22
2024-04-22T15:30:20.979Z,6.28
2024-04-22T15:33:11.009Z,5.97
2024-04-22T15:36:04.615Z,6.25
2024-04-22T15:38:53.213Z,8.73
2024-04-22T15:41:47.335Z,5.80
2024-04-22T15:44:35.826Z,4.80
2024-04-22T15:47:27.093Z,6.90
2024-04-22T15:50:15.740Z,7.18
2024-04-22T15:53:08.666Z,7.88
2024-04-22T15:58:51.962Z,9.40
2024-04-22T16:01:41.047Z,10.13
2024-04-22T16:04:32.518Z,8.25
2024-04-22T16:07:22.929Z,9.07
2024-04-22T16:10:14.433Z,5.65
2024-04-22T16:13:03.023Z,6.03
2024-04-22T16:15:56.797Z,5.88
2024-04-22T16:18:48.404Z,7.93
2024-04-22T16:21:36.994Z,6.78
2024-04-22T16:24:28.485Z,6.15
2024-04-22T16:27:17.012Z,6.93
2024-04-22T16:30:09.457Z,7.03
2024-04-22T16:33:00.707Z,7.72
2024-04-22T16:35:52.201Z,5.72
2024-04-22T16:38:40.674Z,7.40
2024-04-22T16:41:31.888Z,11.63
2024-04-22T16:44:21.911Z,7.28
2024-04-22T16:47:13.243Z,5.75
2024-04-22T16:50:04.694Z,8.45
2024-04-22T16:52:55.889Z,6.55
2024-04-22T16:55:44.491Z,6.72
2024-04-22T16:58:35.644Z,6.65
2024-04-22T17:01:25.071Z,6.03
2024-04-22T17:04:16.457Z,6.93
2024-04-22T17:07:07.788Z,5.85
2024-04-22T17:09:58.907Z,4.25
2024-04-22T17:12:51.329Z,4.65
2024-04-22T17:18:31.312Z,5.25
2024-04-22T17:21:19.914Z,6.25
2024-04-22T17:24:13.863Z,3.80
2024-04-22T17:27:02.372Z,4.25
2024-04-22T17:29:53.666Z,5.15
2024-04-22T17:32:42.930Z,3.67
2024-04-22T17:35:34.077Z,5.38
2024-04-22T17:38:25.715Z,3.58
2024-04-22T17:41:16.967Z,6.68
2024-04-22T17:44:09.117Z,4.22
2024-04-22T17:46:58.630Z,4.17
2024-04-22T17:49:50.203Z,4.60
2024-04-22T17:52:41.534Z,5.30
2024-04-22T17:55:33.814Z,3.65
2024-04-22T17:58:25.235Z,6.32
2024-04-22T18:01:17.531Z,4.72
2024-04-22T18:04:06.175Z,4.55
2024-04-22T18:06:57.505Z,7.20
2024-04-22T18:09:46.088Z,3.42
2024-04-22T18:12:38.183Z,5.97
2024-04-22T18:15:29.317Z,4.72
2024-04-22T18:18:20.490Z,5.25
2024-04-22T18:21:11.973Z,6.20
2024-04-22T18:24:03.339Z,6.13
2024-04-22T18:26:56.107Z,15.45
2024-04-22T18:29:44.533Z,4.68
2024-04-22T18:32:38.530Z,6.22
2024-04-22T18:35:27.065Z,7.13
2024-04-22T18:38:18.486Z,5.97
2024-04-22T18:41:10.238Z,5.30
2024-04-22T18:44:02.143Z,5.55
2024-04-22T18:46:50.684Z,5.68
2024-04-22T18:49:44.659Z,4.00
2024-04-22T18:52:33.236Z,4.18
2024-04-22T18:55:24.550Z,4.65
2024-04-22T18:58:13.026Z,5.85
2024-04-22T19:01:04.322Z,3.92
2024-04-22T19:03:52.878Z,4.53
2024-04-22T19:06:47.041Z,5.43
2024-04-22T19:09:38.276Z,4.50
2024-04-22T19:12:26.787Z,5.20
2024-04-22T19:15:18.033Z,4.60
2024-04-22T19:18:07.105Z,4.68
2024-04-22T19:20:58.233Z,4.90
2024-04-22T19:23:52.067Z,7.10
2024-04-22T19:26:40.488Z,4.22
2024-04-22T19:29:31.534Z,7.13
2024-04-22T19:32:19.977Z,4.10
2024-04-22T19:35:11.723Z,4.88
2024-04-22T19:38:02.878Z,3.30
2024-04-22T19:40:56.646Z,3.30
2024-04-22T19:43:45.204Z,3.60
2024-04-22T19:46:36.721Z,7.88
2024-04-22T19:49:25.359Z,4.60
2024-04-22T19:52:16.658Z,6.22
2024-04-22T19:55:05.866Z,4.32
2024-04-22T19:57:59.817Z,6.35
2024-04-22T20:00:48.485Z,6.85
2024-04-22T20:03:40.131Z,6.60
2024-04-22T20:06:28.835Z,6.13
2024-04-22T20:09:20.416Z,9.10
2024-04-22T20:12:09.007Z,3.92
2024-04-22T20:15:03.172Z,4.82
2024-04-22T20:18:04.969Z,6.60
2024-04-22T20:20:59.678Z,5.50
2024-04-22T20:23:48.266Z,5.00
2024-04-22T20:26:39.430Z,4.78
2024-04-22T20:29:27.897Z,4.72
2024-04-22T20:32:21.738Z,4.10
2024-04-22T20:35:12.967Z,3.78
2024-04-22T20:38:01.471Z,4.35
2024-04-22T20:41:00.461Z,2.97
2024-04-22T20:43:48.995Z,4.13
2024-04-22T20:46:43.195Z,6.05
2024-04-22T20:49:34.429Z,2.97
2024-04-22T20:52:25.556Z,5.32
2024-04-22T20:55:14.726Z,3.15
2024-04-22T20:58:05.856Z,4.65
2024-04-22T21:00:55.057Z,3.47
2024-04-22T21:03:46.167Z,5.68
2024-04-22T21:06:37.307Z,3.95
2024-04-22T21:09:28.422Z,4.78
2024-04-22T21:12:17.967Z,4.78
2024-04-22T21:15:10.041Z,3.95
2024-04-22T21:17:58.583Z,4.73
2024-04-22T21:20:50.061Z,2.53
2024-04-22T21:23:44.203Z,6.30
2024-04-22T21:26:32.934Z,3.17
2024-04-22T21:29:24.413Z,4.13
2024-04-22T21:32:12.774Z,3.40
2024-04-22T21:35:04.690Z,2.38
2024-04-22T21:37:53.449Z,2.35
2024-04-22T21:40:47.404Z,3.33
2024-04-22T21:43:37.605Z,3.80
2024-04-22T21:46:28.809Z,6.40
2024-04-22T21:49:17.243Z,4.07
2024-04-22T21:52:10.599Z,3.90
2024-04-22T21:54:59.590Z,3.03
2024-04-22T21:58:48.135Z,2.22
2024-04-22T22:02:36.767Z,4.15
2024-04-22T22:06:21.152Z,1.58
2024-04-22T22:09:29.025Z,2.58
2024-04-22T22:12:21.528Z,2.47
2024-04-22T22:15:14.810Z,3.20
2024-04-22T22:18:03.785Z,2.47
2024-04-22T22:20:55.191Z,4.28
2024-04-22T22:23:43.683Z,2.10
2024-04-22T22:26:37.511Z,3.80
2024-04-22T22:29:25.887Z,2.17
2024-04-22T22:32:17.045Z,3.60
2024-04-22T22:35:06.090Z,4.63
2024-04-22T22:37:57.681Z,2.80
2024-04-22T22:40:46.162Z,2.40
2024-04-22T22:43:39.896Z,3.50
2024-04-22T22:46:28.444Z,2.35
2024-04-22T22:49:19.690Z,3.83
2024-04-22T22:52:08.224Z,2.40
2024-04-22T22:54:59.564Z,2.92
2024-04-22T22:57:48.017Z,2.38
2024-04-22T23:00:41.984Z,3.85
2024-04-22T23:03:30.401Z,3.55
2024-04-22T23:06:21.462Z,3.05
2024-04-22T23:09:10.160Z,5.57
2024-04-22T23:12:01.555Z,2.50
2024-04-22T23:14:50.151Z,3.55
2024-04-22T23:17:43.904Z,2.85
2024-04-22T23:20:32.452Z,2.95
2024-04-22T23:23:23.504Z,4.18
2024-04-22T23:26:11.988Z,5.35
2024-04-22T23:29:03.135Z,3.85
2024-04-22T23:31:51.673Z,5.30
2024-04-22T23:34:45.443Z,6.75
2024-04-22T23:37:33.969Z,5.85
2024-04-22T23:40:25.219Z,6.50
2024-04-22T23:43:13.740Z,4.07
2024-04-22T23:46:05.142Z,3.70
2024-04-22T23:48:56.317Z,3.15
2024-04-22T23:51:47.615Z,3.90
2024-04-22T23:54:38.669Z,5.13
2024-04-22T23:57:27.069Z,4.05
